createdAt,value
2016-03-16T00:00:26.747Z,1011.04
2016-03-16T00:01:26.750Z,1011.03
2016-03-16T00:02:26.768Z,1011.08
2016-03-16T00:03:26.770Z,1011.1
2016-03-16T00:04:26.789Z,1011.05
2016-03-16T00:05:26.807Z,1011.05
2016-03-16T00:06:26.810Z,1011.06
2016-03-16T00:07:26.827Z,1011.05
2016-03-16T00:08:26.846Z,1011.01
2016-03-16T00:09:26.849Z,1011.08
2016-03-16T00:10:26.867Z,1011.05
2016-03-16T00:11:26.870Z,1011.03
2016-03-16T00:12:26.888Z,1011.04
2016-03-16T00:13:26.907Z,1011.07
2016-03-16T00:14:26.925Z,1011.11
2016-03-16T00:15:26.928Z,1011.08
2016-03-16T00:16:26.946Z,1011.12
2016-03-16T00:17:26.949Z,1011.11
2016-03-16T00:18:26.967Z,1011.14
2016-03-16T00:19:26.976Z,1011.13
2016-03-16T00:20:26.983Z,1011.1
2016-03-16T00:21:26.973Z,1011.11
2016-03-16T00:22:26.979Z,1011.13
2016-03-16T00:23:26.986Z,1011.12
2016-03-16T00:24:26.983Z,1011.1
2016-03-16T00:25:26.997Z,1011.11
2016-03-16T00:26:26.996Z,1011.14
2016-03-16T00:27:27.009Z,1011.09
2016-03-16T00:28:27.024Z,1011.12
2016-03-16T00:29:27.040Z,1011.14
2016-03-16T00:30:27.044Z,1011.13
2016-03-16T00:31:27.061Z,1011.15
2016-03-16T00:32:27.063Z,1011.17
2016-03-16T00:33:27.079Z,1011.19
2016-03-16T00:34:27.082Z,1011.13
2016-03-16T00:35:27.099Z,1011.14
2016-03-16T00:36:27.118Z,1011.15
2016-03-16T00:37:27.120Z,1011.2
2016-03-16T00:38:27.138Z,1011.14
2016-03-16T00:39:27.155Z,1011.15
2016-03-16T00:40:27.158Z,1011.14
2016-03-16T00:41:27.176Z,1011.17
2016-03-16T00:42:27.193Z,1011.16
2016-03-16T00:43:27.196Z,1011.23
2016-03-16T00:44:27.230Z,1011.23
2016-03-16T00:45:27.233Z,1011.24
2016-03-16T00:46:27.235Z,1011.21
2016-03-16T00:47:27.253Z,1011.2
2016-03-16T00:48:27.272Z,1011.17
2016-03-16T00:49:27.275Z,1011.22
2016-03-16T00:50:27.293Z,1011.23
2016-03-16T00:51:27.296Z,1011.2
2016-03-16T00:52:27.314Z,1011.19
2016-03-16T00:53:27.332Z,1011.17
2016-03-16T00:54:27.335Z,1011.21
2016-03-16T00:55:27.353Z,1011.19
2016-03-16T00:56:27.371Z,1011.18
2016-03-16T00:57:27.390Z,1011.18
2016-03-16T00:58:27.394Z,1011.21
2016-03-16T00:59:27.411Z,1011.17
2016-03-16T01:00:27.414Z,1011.22
2016-03-16T01:01:27.432Z,1011.19
2016-03-16T01:02:27.451Z,1011.2
2016-03-16T01:03:27.454Z,1011.22
2016-03-16T01:04:27.472Z,1011.23
2016-03-16T01:05:27.490Z,1011.21
2016-03-16T01:06:27.493Z,1011.21
2016-03-16T01:07:27.514Z,1011.24
2016-03-16T01:08:27.517Z,1011.27
2016-03-16T01:09:27.535Z,1011.27
2016-03-16T01:10:27.553Z,1011.28
2016-03-16T01:11:27.556Z,1011.26
2016-03-16T01:12:27.574Z,1011.26
2016-03-16T01:13:27.597Z,1011.26
2016-03-16T01:14:27.600Z,1011.26
2016-03-16T01:15:27.618Z,1011.28
2016-03-16T01:16:27.636Z,1011.28
2016-03-16T01:17:27.656Z,1011.23
2016-03-16T01:18:27.658Z,1011.24
2016-03-16T01:19:27.676Z,1011.27
2016-03-16T01:20:27.678Z,1011.27
2016-03-16T01:21:27.713Z,1011.26
2016-03-16T01:22:27.715Z,1011.27
2016-03-16T01:23:27.734Z,1011.28
2016-03-16T01:24:27.737Z,1011.32
2016-03-16T01:25:27.739Z,1011.31
2016-03-16T01:26:27.758Z,1011.3
2016-03-16T01:27:27.776Z,1011.31
2016-03-16T01:28:27.794Z,1011.31
2016-03-16T01:29:27.797Z,1011.38
2016-03-16T01:30:27.815Z,1011.34
2016-03-16T01:31:27.818Z,1011.32
2016-03-16T01:32:27.836Z,1011.29
2016-03-16T01:33:27.855Z,1011.32
2016-03-16T01:34:27.857Z,1011.33
2016-03-16T01:35:27.875Z,1011.36
2016-03-16T01:36:27.894Z,1011.38
2016-03-16T01:37:27.897Z,1011.38
2016-03-16T01:38:27.915Z,1011.33
2016-03-16T01:39:27.933Z,1011.39
2016-03-16T01:40:27.952Z,1011.37
2016-03-16T01:41:27.954Z,1011.33
2016-03-16T01:42:27.973Z,1011.31
2016-03-16T01:43:27.975Z,1011.32
2016-03-16T01:44:28.024Z,1011.34
2016-03-16T01:45:28.012Z,1011.31
2016-03-16T01:46:28.045Z,1011.36
2016-03-16T01:47:28.032Z,1011.35
2016-03-16T01:48:28.082Z,1011.35
2016-03-16T01:49:28.054Z,1011.36
2016-03-16T01:50:28.150Z,1011.33
2016-03-16T01:51:28.087Z,1011.3
2016-03-16T01:52:28.137Z,1011.3
2016-03-16T01:53:28.109Z,1011.32
2016-03-16T01:54:28.159Z,1011.31
2016-03-16T01:55:28.130Z,1011.39
2016-03-16T01:56:28.195Z,1011.35
2016-03-16T01:57:28.167Z,1011.32
2016-03-16T01:58:28.201Z,1011.36
2016-03-16T01:59:28.187Z,1011.37
2016-03-16T02:00:28.253Z,1011.38
2016-03-16T02:01:28.209Z,1011.36
2016-03-16T02:02:28.258Z,1011.38
2016-03-16T02:03:28.245Z,1011.39
2016-03-16T02:04:28.264Z,1011.39
2016-03-16T02:05:28.266Z,1011.37
2016-03-16T02:06:28.315Z,1011.36
2016-03-16T02:07:28.287Z,1011.35
2016-03-16T02:08:28.304Z,1011.33
2016-03-16T02:09:28.323Z,1011.37
2016-03-16T02:10:28.326Z,1011.38
2016-03-16T02:11:28.344Z,1011.35
2016-03-16T02:12:28.362Z,1011.35
2016-03-16T02:13:28.365Z,1011.34
2016-03-16T02:14:28.384Z,1011.32
2016-03-16T02:15:28.401Z,1011.32
2016-03-16T02:16:28.403Z,1011.34
2016-03-16T02:17:28.423Z,1011.33
2016-03-16T02:18:28.441Z,1011.37
2016-03-16T02:19:28.444Z,1011.36
2016-03-16T02:20:28.462Z,1011.39
2016-03-16T02:21:28.466Z,1011.4
2016-03-16T02:22:28.484Z,1011.37
2016-03-16T02:23:28.502Z,1011.38
2016-03-16T02:24:28.504Z,1011.43
2016-03-16T02:25:28.523Z,1011.43
2016-03-16T02:26:28.542Z,1011.47
2016-03-16T02:27:28.544Z,1011.45
2016-03-16T02:28:28.562Z,1011.44
2016-03-16T02:29:28.580Z,1011.45
2016-03-16T02:30:28.584Z,1011.39
2016-03-16T02:31:28.602Z,1011.4
2016-03-16T02:32:28.620Z,1011.38
2016-03-16T02:33:28.639Z,1011.42
2016-03-16T02:34:28.641Z,1011.46
2016-03-16T02:35:28.659Z,1011.48
2016-03-16T02:36:28.678Z,1011.47
2016-03-16T02:37:28.681Z,1011.41
2016-03-16T02:38:28.699Z,1011.37
2016-03-16T02:39:28.702Z,1011.39
2016-03-16T02:40:28.719Z,1011.4
2016-03-16T02:41:28.738Z,1011.39
2016-03-16T02:42:28.741Z,1011.39
2016-03-16T02:43:28.760Z,1011.4
2016-03-16T02:44:28.777Z,1011.41
2016-03-16T02:45:28.780Z,1011.42
2016-03-16T02:46:28.798Z,1011.43
2016-03-16T02:47:28.816Z,1011.39
2016-03-16T02:48:28.818Z,1011.42
2016-03-16T02:49:28.838Z,1011.43
2016-03-16T02:50:28.856Z,1011.45
2016-03-16T02:51:28.874Z,1011.42
2016-03-16T02:52:28.876Z,1011.38
2016-03-16T02:53:28.895Z,1011.35
2016-03-16T02:54:28.914Z,1011.39
2016-03-16T02:55:28.917Z,1011.41
2016-03-16T02:56:28.935Z,1011.43
2016-03-16T02:57:28.953Z,1011.43
2016-03-16T02:58:28.956Z,1011.4
2016-03-16T02:59:28.973Z,1011.39
2016-03-16T03:00:28.976Z,1011.37
2016-03-16T03:01:28.995Z,1011.39
2016-03-16T03:02:29.014Z,1011.36
2016-03-16T03:03:29.016Z,1011.4
2016-03-16T03:04:29.033Z,1011.38
2016-03-16T03:05:29.052Z,1011.39
2016-03-16T03:06:29.071Z,1011.41
2016-03-16T03:07:29.074Z,1011.38
2016-03-16T03:08:29.091Z,1011.4
2016-03-16T03:09:29.094Z,1011.39
2016-03-16T03:10:29.113Z,1011.42
2016-03-16T03:11:29.131Z,1011.45
2016-03-16T03:12:29.133Z,1011.45
2016-03-16T03:13:29.152Z,1011.4
2016-03-16T03:14:29.171Z,1011.41
2016-03-16T03:15:29.174Z,1011.4
2016-03-16T03:16:29.191Z,1011.4
2016-03-16T03:17:29.209Z,1011.46
2016-03-16T03:18:29.213Z,1011.44
2016-03-16T03:19:29.231Z,1011.4
2016-03-16T03:20:29.249Z,1011.41
2016-03-16T03:21:29.252Z,1011.43
2016-03-16T03:22:29.270Z,1011.41
2016-03-16T03:23:29.288Z,1011.45
2016-03-16T03:24:29.291Z,1011.44
2016-03-16T03:25:29.309Z,1011.44
2016-03-16T03:26:29.328Z,1011.43
2016-03-16T03:27:29.331Z,1011.41
2016-03-16T03:28:29.348Z,1011.41
2016-03-16T03:29:29.367Z,1011.43
2016-03-16T03:30:29.370Z,1011.48
2016-03-16T03:31:29.389Z,1011.46
2016-03-16T03:32:29.391Z,1011.51
2016-03-16T03:33:29.409Z,1011.48
2016-03-16T03:34:29.428Z,1011.53
2016-03-16T03:35:29.431Z,1011.51
2016-03-16T03:36:29.448Z,1011.52
2016-03-16T03:37:29.466Z,1011.49
2016-03-16T03:38:29.470Z,1011.48
2016-03-16T03:39:29.488Z,1011.51
2016-03-16T03:40:29.505Z,1011.5
2016-03-16T03:41:29.524Z,1011.52
2016-03-16T03:42:29.527Z,1011.45
2016-03-16T03:43:29.546Z,1011.51
2016-03-16T03:44:29.548Z,1011.51
2016-03-16T03:45:29.566Z,1011.55
2016-03-16T03:46:29.585Z,1011.55
2016-03-16T03:47:29.588Z,1011.54
2016-03-16T03:48:29.605Z,1011.56
2016-03-16T03:49:29.624Z,1011.49
2016-03-16T03:50:29.627Z,1011.47
2016-03-16T03:51:29.645Z,1011.55
2016-03-16T03:52:29.663Z,1011.55
2016-03-16T03:53:29.665Z,1011.53
2016-03-16T03:54:29.684Z,1011.48
2016-03-16T03:55:29.686Z,1011.47
2016-03-16T03:56:29.705Z,1011.52
2016-03-16T03:57:29.723Z,1011.48
2016-03-16T03:58:29.726Z,1011.54
2016-03-16T03:59:29.745Z,1011.56
2016-03-16T04:00:29.762Z,1011.64
2016-03-16T04:01:29.781Z,1011.62
2016-03-16T04:02:29.784Z,1011.56
2016-03-16T04:03:29.803Z,1011.59
2016-03-16T04:04:29.805Z,1011.59
2016-03-16T04:05:29.822Z,1011.61
2016-03-16T04:06:29.825Z,1011.53
2016-03-16T04:07:29.844Z,1011.57
2016-03-16T04:08:29.862Z,1011.62
2016-03-16T04:09:29.865Z,1011.63
2016-03-16T04:10:29.883Z,1011.61
2016-03-16T04:11:29.902Z,1011.6
2016-03-16T04:12:29.905Z,1011.65
2016-03-16T04:13:29.938Z,1011.67
2016-03-16T04:14:29.941Z,1011.62
2016-03-16T04:15:29.959Z,1011.69
2016-03-16T04:16:29.962Z,1011.7
2016-03-16T04:17:29.980Z,1011.72
2016-03-16T04:18:29.982Z,1011.72
2016-03-16T04:19:30.001Z,1011.71
2016-03-16T04:20:30.020Z,1011.68
2016-03-16T04:21:30.023Z,1011.75
2016-03-16T04:22:30.040Z,1011.74
2016-03-16T04:23:30.060Z,1011.75
2016-03-16T04:24:30.062Z,1011.74
2016-03-16T04:25:30.079Z,1011.73
2016-03-16T04:26:30.098Z,1011.77
2016-03-16T04:27:30.101Z,1011.73
2016-03-16T04:28:30.120Z,1011.71
2016-03-16T04:29:30.122Z,1011.76
2016-03-16T04:30:30.140Z,1011.75
2016-03-16T04:31:30.159Z,1011.81
2016-03-16T04:32:30.178Z,1011.78
2016-03-16T04:33:30.180Z,1011.81
2016-03-16T04:34:30.198Z,1011.78
2016-03-16T04:35:30.217Z,1011.86
2016-03-16T04:36:30.219Z,1011.84
2016-03-16T04:37:30.237Z,1011.79
2016-03-16T04:38:30.255Z,1011.82
2016-03-16T04:39:30.259Z,1011.82
2016-03-16T04:40:30.277Z,1011.89
2016-03-16T04:41:30.280Z,1011.87
2016-03-16T04:42:30.297Z,1011.89
2016-03-16T04:43:30.316Z,1011.87
2016-03-16T04:44:30.319Z,1011.85
2016-03-16T04:45:30.369Z,1011.89
2016-03-16T04:46:30.355Z,1011.9
2016-03-16T04:47:30.358Z,1011.87
2016-03-16T04:48:30.376Z,1011.88
2016-03-16T04:49:30.394Z,1011.82
2016-03-16T04:50:30.397Z,1011.88
2016-03-16T04:51:30.416Z,1011.88
2016-03-16T04:52:30.418Z,1011.91
2016-03-16T04:53:30.437Z,1011.94
2016-03-16T04:54:30.454Z,1011.91
2016-03-16T04:55:30.473Z,1011.95
2016-03-16T04:56:30.476Z,1011.93
2016-03-16T04:57:30.510Z,1011.92
2016-03-16T04:58:30.512Z,1011.93
2016-03-16T04:59:30.531Z,1011.96
2016-03-16T05:00:30.534Z,1011.98
2016-03-16T05:01:30.536Z,1011.97
2016-03-16T05:02:30.554Z,1011.92
2016-03-16T05:03:30.573Z,1012.01
2016-03-16T05:04:30.592Z,1011.98
2016-03-16T05:05:30.625Z,1011.95
2016-03-16T05:06:30.599Z,1011.96
2016-03-16T05:07:30.620Z,1011.97
2016-03-16T05:08:30.623Z,1011.97
2016-03-16T05:09:30.642Z,1011.96
2016-03-16T05:10:30.660Z,1011.97
2016-03-16T05:11:30.678Z,1011.96
2016-03-16T05:12:30.681Z,1011.95
2016-03-16T05:13:30.699Z,1011.97
2016-03-16T05:14:30.702Z,1011.95
2016-03-16T05:15:30.720Z,1011.99
2016-03-16T05:16:30.723Z,1012.05
2016-03-16T05:17:30.742Z,1012.03
2016-03-16T05:18:30.760Z,1012.03
2016-03-16T05:19:30.778Z,1012.06
2016-03-16T05:20:30.780Z,1012.02
2016-03-16T05:21:30.799Z,1012
2016-03-16T05:22:30.817Z,1012.04
2016-03-16T05:23:30.819Z,1012.06
2016-03-16T05:24:30.838Z,1012.07
2016-03-16T05:25:30.841Z,1012.01
2016-03-16T05:26:30.860Z,1012.07
2016-03-16T05:27:30.878Z,1012.03
2016-03-16T05:28:30.896Z,1012.03
2016-03-16T05:29:30.899Z,1012
2016-03-16T05:30:30.917Z,1012.01
2016-03-16T05:31:30.920Z,1012.08
2016-03-16T05:33:30.956Z,1012.07
2016-03-16T05:34:30.959Z,1012.09
2016-03-16T05:35:30.977Z,1012.07
2016-03-16T05:36:30.995Z,1012.09
2016-03-16T05:37:30.998Z,1012.03
2016-03-16T05:38:31.017Z,1012.08
2016-03-16T05:39:31.020Z,1012.09
2016-03-16T05:40:31.038Z,1012.08
2016-03-16T05:41:31.056Z,1012.1
2016-03-16T05:42:31.075Z,1012.1
2016-03-16T05:43:31.092Z,1012.1
2016-03-16T05:44:31.095Z,1012.16
2016-03-16T05:45:31.114Z,1012.14
2016-03-16T05:46:31.116Z,1012.13
2016-03-16T05:47:31.134Z,1012.16
2016-03-16T05:48:31.136Z,1012.16
2016-03-16T05:49:31.155Z,1012.18
2016-03-16T05:50:31.174Z,1012.15
2016-03-16T05:51:31.177Z,1012.12
2016-03-16T05:52:31.195Z,1012.09
2016-03-16T05:53:31.197Z,1012.08
2016-03-16T05:54:31.216Z,1012.1
2016-03-16T05:55:31.234Z,1012.09
2016-03-16T05:56:31.252Z,1012.11
2016-03-16T05:57:31.255Z,1012.12
2016-03-16T05:58:31.274Z,1012.12
2016-03-16T05:59:31.292Z,1012.13
2016-03-16T06:00:31.295Z,1012.15
2016-03-16T06:01:31.313Z,1012.17
2016-03-16T06:02:31.332Z,1012.18
2016-03-16T06:03:31.335Z,1012.24
2016-03-16T06:04:31.352Z,1012.25
2016-03-16T06:05:31.355Z,1012.28
2016-03-16T06:06:31.373Z,1012.26
2016-03-16T06:07:31.392Z,1012.26
2016-03-16T06:08:31.409Z,1012.32
2016-03-16T06:09:31.412Z,1012.27
2016-03-16T06:10:31.431Z,1012.34
2016-03-16T06:11:31.433Z,1012.31
2016-03-16T06:12:31.452Z,1012.4
2016-03-16T06:13:31.470Z,1012.39
2016-03-16T06:14:31.473Z,1012.4
2016-03-16T06:15:31.492Z,1012.41
2016-03-16T06:16:31.494Z,1012.41
2016-03-16T06:17:31.512Z,1012.47
2016-03-16T06:18:31.530Z,1012.46
2016-03-16T06:19:31.549Z,1012.51
2016-03-16T06:20:31.552Z,1012.48
2016-03-16T06:21:31.569Z,1012.47
2016-03-16T06:22:31.588Z,1012.54
2016-03-16T06:23:31.591Z,1012.51
2016-03-16T06:24:31.608Z,1012.55
2016-03-16T06:25:31.612Z,1012.56
2016-03-16T06:26:31.630Z,1012.54
2016-03-16T06:27:31.633Z,1012.63
2016-03-16T06:28:31.652Z,1012.56
2016-03-16T06:29:31.670Z,1012.59
2016-03-16T06:30:31.671Z,1012.6
2016-03-16T06:31:31.690Z,1012.59
2016-03-16T06:32:31.709Z,1012.62
2016-03-16T06:33:31.712Z,1012.65
2016-03-16T06:34:31.730Z,1012.7
2016-03-16T06:35:31.732Z,1012.74
2016-03-16T06:36:31.751Z,1012.69
2016-03-16T06:37:31.768Z,1012.71
2016-03-16T06:38:31.772Z,1012.73
2016-03-16T06:39:31.806Z,1012.72
2016-03-16T06:40:31.808Z,1012.74
2016-03-16T06:41:31.826Z,1012.74
2016-03-16T06:42:31.829Z,1012.74
2016-03-16T06:43:31.847Z,1012.78
2016-03-16T06:44:31.851Z,1012.79
2016-03-16T06:45:31.884Z,1012.85
2016-03-16T06:46:31.887Z,1012.88
2016-03-16T06:47:31.906Z,1012.92
2016-03-16T06:48:31.908Z,1012.84
2016-03-16T06:49:31.926Z,1012.87
2016-03-16T06:50:31.928Z,1012.89
2016-03-16T06:51:31.947Z,1012.89
2016-03-16T06:52:31.950Z,1012.88
2016-03-16T06:53:31.969Z,1012.88
2016-03-16T06:54:31.987Z,1012.87
2016-03-16T06:55:31.989Z,1012.89
2016-03-16T06:56:32.008Z,1012.87
2016-03-16T06:57:32.026Z,1012.88
2016-03-16T06:58:32.044Z,1012.88
2016-03-16T06:59:32.046Z,1012.95
2016-03-16T07:00:32.065Z,1012.91
2016-03-16T07:01:32.068Z,1012.93
2016-03-16T07:02:32.086Z,1012.9
2016-03-16T07:03:32.105Z,1012.89
2016-03-16T07:04:32.108Z,1012.94
2016-03-16T07:05:32.126Z,1012.9
2016-03-16T07:06:32.129Z,1012.91
2016-03-16T07:07:32.147Z,1012.94
2016-03-16T07:08:32.165Z,1012.96
2016-03-16T07:09:32.184Z,1012.97
2016-03-16T07:10:32.186Z,1012.97
2016-03-16T07:11:32.204Z,1012.99
2016-03-16T07:12:32.222Z,1012.94
2016-03-16T07:13:32.225Z,1012.97
2016-03-16T07:14:32.243Z,1013
2016-03-16T07:15:32.245Z,1013.02
2016-03-16T07:16:32.264Z,1013.01
2016-03-16T07:17:32.283Z,1013.03
2016-03-16T07:18:32.286Z,1013.03
2016-03-16T07:19:32.304Z,1013.06
2016-03-16T07:20:32.322Z,1012.98
2016-03-16T07:21:32.341Z,1013.01
2016-03-16T07:22:32.343Z,1013
2016-03-16T07:23:32.361Z,1012.99
2016-03-16T07:24:32.380Z,1012.97
2016-03-16T07:25:32.383Z,1012.99
2016-03-16T07:26:32.401Z,1012.99
2016-03-16T07:27:32.420Z,1012.99
2016-03-16T07:28:32.422Z,1013.04
2016-03-16T07:29:32.441Z,1013.01
2016-03-16T07:30:32.458Z,1013.05
2016-03-16T07:31:32.461Z,1013.05
2016-03-16T07:32:32.479Z,1013.07
2016-03-16T07:33:32.498Z,1013.06
2016-03-16T07:34:32.501Z,1013.09
2016-03-16T07:35:32.565Z,1013.16
2016-03-16T07:36:32.537Z,1013.11
2016-03-16T07:37:32.602Z,1013.09
2016-03-16T07:38:32.558Z,1013.12
2016-03-16T07:39:32.561Z,1013.06
2016-03-16T07:40:32.579Z,1013.12
2016-03-16T07:41:32.598Z,1013.14
2016-03-16T07:42:32.615Z,1013.13
2016-03-16T07:43:32.634Z,1013.13
2016-03-16T07:44:32.636Z,1013.15
2016-03-16T07:45:32.655Z,1013.16
2016-03-16T07:46:32.658Z,1013.11
2016-03-16T07:47:32.675Z,1013.11
2016-03-16T07:48:32.694Z,1013.12
2016-03-16T07:49:32.712Z,1013.15
2016-03-16T07:50:32.731Z,1013.2
2016-03-16T07:51:32.734Z,1013.15
2016-03-16T07:52:32.752Z,1013.12
2016-03-16T07:53:32.755Z,1013.16
2016-03-16T07:54:32.772Z,1013.17
2016-03-16T07:55:32.775Z,1013.16
2016-03-16T07:56:32.794Z,1013.18
2016-03-16T07:57:32.797Z,1013.14
2016-03-16T07:58:32.816Z,1013.16
2016-03-16T07:59:32.834Z,1013.1
2016-03-16T08:00:32.852Z,1013.13
2016-03-16T08:01:32.855Z,1013.11
2016-03-16T08:02:32.872Z,1013.11
2016-03-16T08:03:32.891Z,1013.13
2016-03-16T08:04:32.893Z,1013.15
2016-03-16T08:05:32.912Z,1013.09
2016-03-16T08:06:32.926Z,1013.05
2016-03-16T08:07:32.945Z,1013.1
2016-03-16T08:08:32.948Z,1013.08
2016-03-16T08:09:32.966Z,1013.14
2016-03-16T08:10:32.984Z,1013.16
2016-03-16T08:11:32.986Z,1013.24
2016-03-16T08:12:33.005Z,1013.28
2016-03-16T08:13:33.024Z,1013.25
2016-03-16T08:14:33.026Z,1013.24
2016-03-16T08:15:33.044Z,1013.19
2016-03-16T08:16:33.063Z,1013.23
2016-03-16T08:17:33.081Z,1013.3
2016-03-16T08:18:33.083Z,1013.31
2016-03-16T08:19:33.102Z,1013.3
2016-03-16T08:20:33.121Z,1013.22
2016-03-16T08:21:33.124Z,1013.25
2016-03-16T08:22:33.141Z,1013.24
2016-03-16T08:23:33.143Z,1013.23
2016-03-16T08:24:33.162Z,1013.23
2016-03-16T08:25:33.181Z,1013.22
2016-03-16T08:26:33.199Z,1013.27
2016-03-16T08:27:33.218Z,1013.27
2016-03-16T08:28:33.220Z,1013.28
2016-03-16T08:29:33.238Z,1013.26
2016-03-16T08:30:33.257Z,1013.24
2016-03-16T08:31:33.259Z,1013.27
2016-03-16T08:32:33.278Z,1013.29
2016-03-16T08:33:33.296Z,1013.34
2016-03-16T08:34:33.314Z,1013.36
2016-03-16T08:35:33.317Z,1013.3
2016-03-16T08:36:33.336Z,1013.36
2016-03-16T08:37:33.353Z,1013.43
2016-03-16T08:38:33.356Z,1013.43
2016-03-16T08:39:33.375Z,1013.4
2016-03-16T08:40:33.392Z,1013.47
2016-03-16T08:41:33.395Z,1013.42
2016-03-16T08:42:33.413Z,1013.42
2016-03-16T08:43:33.432Z,1013.43
2016-03-16T08:44:33.435Z,1013.44
2016-03-16T08:45:33.453Z,1013.44
2016-03-16T08:46:33.471Z,1013.46
2016-03-16T08:47:33.475Z,1013.46
2016-03-16T08:48:33.493Z,1013.43
2016-03-16T08:49:33.511Z,1013.51
2016-03-16T08:50:33.529Z,1013.54
2016-03-16T08:51:33.532Z,1013.53
2016-03-16T08:52:33.550Z,1013.6
2016-03-16T08:53:33.568Z,1013.57
2016-03-16T08:54:33.587Z,1013.54
2016-03-16T08:55:33.605Z,1013.6
2016-03-16T08:56:33.608Z,1013.54
2016-03-16T08:57:33.626Z,1013.59
2016-03-16T08:58:33.645Z,1013.57
2016-03-16T08:59:33.648Z,1013.57
2016-03-16T09:00:33.665Z,1013.58
2016-03-16T09:01:33.684Z,1013.62
2016-03-16T09:02:33.687Z,1013.66
2016-03-16T09:03:33.704Z,1013.63
2016-03-16T09:04:33.723Z,1013.66
2016-03-16T09:05:33.741Z,1013.57
2016-03-16T09:06:33.750Z,1013.58
2016-03-16T09:07:33.767Z,1013.66
2016-03-16T09:08:33.786Z,1013.62
2016-03-16T09:09:33.789Z,1013.56
2016-03-16T09:10:33.806Z,1013.56
2016-03-16T09:11:33.825Z,1013.64
2016-03-16T09:12:33.827Z,1013.66
2016-03-16T09:13:33.846Z,1013.59
2016-03-16T09:14:33.864Z,1013.73
2016-03-16T09:15:33.882Z,1013.66
2016-03-16T09:16:33.885Z,1013.68
2016-03-16T09:17:33.904Z,1013.67
2016-03-16T09:18:33.921Z,1013.67
2016-03-16T09:19:33.940Z,1013.73
2016-03-16T09:20:33.957Z,1013.72
2016-03-16T09:21:33.963Z,1013.73
2016-03-16T09:22:33.982Z,1013.77
2016-03-16T09:23:33.985Z,1013.71
2016-03-16T09:24:34.004Z,1013.7
2016-03-16T09:25:34.023Z,1013.73
2016-03-16T09:26:34.017Z,1013.76
2016-03-16T09:27:33.997Z,1013.66
2016-03-16T09:28:34.002Z,1013.7
2016-03-16T09:29:34.215Z,1013.8
2016-03-16T09:30:34.576Z,1013.69
2016-03-16T09:31:34.027Z,1013.74
2016-03-16T09:32:34.040Z,1013.65
2016-03-16T09:33:34.038Z,1013.71
2016-03-16T09:34:34.052Z,1013.6
2016-03-16T09:35:34.051Z,1013.67
2016-03-16T09:36:34.068Z,1013.65
2016-03-16T09:37:34.083Z,1013.67
2016-03-16T09:38:34.100Z,1013.75
2016-03-16T09:39:34.116Z,1013.65
2016-03-16T09:40:34.117Z,1013.69
2016-03-16T09:41:34.135Z,1013.67
2016-03-16T09:42:34.153Z,1013.67
2016-03-16T09:43:34.155Z,1013.71
2016-03-16T09:44:34.171Z,1013.62
2016-03-16T09:45:34.190Z,1013.63
2016-03-16T09:46:34.209Z,1013.69
2016-03-16T09:47:34.211Z,1013.69
2016-03-16T09:48:34.229Z,1013.71
2016-03-16T09:49:34.248Z,1013.71
2016-03-16T09:50:34.250Z,1013.77
2016-03-16T09:51:34.269Z,1013.74
2016-03-16T09:52:34.286Z,1013.77
2016-03-16T09:53:34.289Z,1013.69
2016-03-16T09:54:34.308Z,1013.74
2016-03-16T09:55:34.325Z,1013.7
2016-03-16T09:56:34.345Z,1013.74
2016-03-16T09:57:34.346Z,1013.82
2016-03-16T09:58:34.366Z,1013.71
2016-03-16T09:59:34.368Z,1013.76
2016-03-16T10:00:34.386Z,1013.74
2016-03-16T10:01:34.404Z,1013.79
2016-03-16T10:02:34.424Z,1013.72
2016-03-16T10:03:34.441Z,1013.69
2016-03-16T10:04:34.443Z,1013.86
2016-03-16T10:05:34.462Z,1013.8
2016-03-16T10:06:34.496Z,1013.78
2016-03-16T10:07:34.482Z,1013.76
2016-03-16T10:08:34.502Z,1013.81
2016-03-16T10:09:34.520Z,1013.81
2016-03-16T10:10:34.522Z,1013.78
2016-03-16T10:11:34.541Z,1013.8
2016-03-16T10:12:34.559Z,1013.79
2016-03-16T10:13:34.562Z,1013.84
2016-03-16T10:14:34.580Z,1013.84
2016-03-16T10:15:34.599Z,1013.79
2016-03-16T10:16:34.617Z,1013.85
2016-03-16T10:17:34.620Z,1013.87
2016-03-16T10:18:34.638Z,1013.85
2016-03-16T10:19:34.656Z,1013.82
2016-03-16T10:20:34.659Z,1013.8
2016-03-16T10:21:34.692Z,1013.81
2016-03-16T10:22:34.728Z,1013.75
2016-03-16T10:23:34.730Z,1013.77
2016-03-16T10:24:34.717Z,1013.74
2016-03-16T10:25:34.735Z,1013.75
2016-03-16T10:26:34.769Z,1013.69
2016-03-16T10:27:34.772Z,1013.68
2016-03-16T10:28:34.821Z,1013.69
2016-03-16T10:29:34.839Z,1013.7
2016-03-16T10:30:34.842Z,1013.77
2016-03-16T10:31:34.829Z,1013.69
2016-03-16T10:32:34.847Z,1013.73
2016-03-16T10:33:34.850Z,1013.75
2016-03-16T10:34:34.868Z,1013.78
2016-03-16T10:35:34.871Z,1013.75
2016-03-16T10:36:34.890Z,1013.79
2016-03-16T10:37:34.908Z,1013.78
2016-03-16T10:38:34.926Z,1013.77
2016-03-16T10:39:34.929Z,1013.81
2016-03-16T10:40:34.946Z,1013.85
2016-03-16T10:41:34.965Z,1013.85
2016-03-16T10:42:34.968Z,1013.81
2016-03-16T10:43:34.986Z,1013.76
2016-03-16T10:44:35.051Z,1013.77
2016-03-16T10:45:35.023Z,1013.81
2016-03-16T10:46:35.041Z,1013.85
2016-03-16T10:47:35.044Z,1013.83
2016-03-16T10:48:35.062Z,1013.83
2016-03-16T10:49:35.065Z,1013.83
2016-03-16T10:50:35.083Z,1013.93
2016-03-16T10:51:35.102Z,1013.9
2016-03-16T10:52:35.120Z,1013.81
2016-03-16T10:53:35.139Z,1013.82
2016-03-16T10:54:35.156Z,1013.85
2016-03-16T10:55:35.159Z,1013.8
2016-03-16T10:56:35.178Z,1013.89
2016-03-16T10:57:35.197Z,1013.8
2016-03-16T10:58:35.199Z,1013.88
2016-03-16T10:59:35.217Z,1013.76
2016-03-16T11:00:35.235Z,1013.76
2016-03-16T11:01:35.239Z,1013.76
2016-03-16T11:02:35.256Z,1013.8
2016-03-16T11:03:35.275Z,1013.8
2016-03-16T11:04:35.294Z,1013.82
2016-03-16T11:05:35.296Z,1013.74
2016-03-16T11:06:35.314Z,1013.77
2016-03-16T11:07:35.332Z,1013.69
2016-03-16T11:08:35.351Z,1013.75
2016-03-16T11:09:35.369Z,1013.85
2016-03-16T11:10:35.372Z,1013.85
2016-03-16T11:11:35.390Z,1013.92
2016-03-16T11:12:35.408Z,1013.9
2016-03-16T11:13:35.427Z,1013.84
2016-03-16T11:14:35.429Z,1013.84
2016-03-16T11:15:35.448Z,1013.84
2016-03-16T11:16:35.466Z,1013.95
2016-03-16T11:17:35.469Z,1013.9
2016-03-16T11:18:35.487Z,1013.89
2016-03-16T11:19:35.506Z,1013.9
2016-03-16T11:20:35.524Z,1013.87
2016-03-16T11:21:35.542Z,1013.81
2016-03-16T11:22:35.545Z,1013.81
2016-03-16T11:23:35.562Z,1013.87
2016-03-16T11:24:35.582Z,1013.87
2016-03-16T11:25:35.600Z,1013.9
2016-03-16T11:26:35.617Z,1013.92
2016-03-16T11:27:35.636Z,1013.9
2016-03-16T11:28:35.639Z,1013.88
2016-03-16T11:29:35.658Z,1013.87
2016-03-16T11:30:35.676Z,1013.89
2016-03-16T11:31:35.679Z,1013.8
2016-03-16T11:32:35.712Z,1013.8
2016-03-16T11:33:35.715Z,1013.79
2016-03-16T11:34:35.717Z,1013.81
2016-03-16T11:35:35.735Z,1013.81
2016-03-16T11:36:35.755Z,1013.84
2016-03-16T11:37:35.757Z,1013.85
2016-03-16T11:38:35.791Z,1013.75
2016-03-16T11:39:35.793Z,1013.85
2016-03-16T11:40:35.813Z,1013.8
2016-03-16T11:41:35.830Z,1013.75
2016-03-16T11:42:35.848Z,1013.85
2016-03-16T11:43:35.852Z,1013.83
2016-03-16T11:44:35.869Z,1013.82
2016-03-16T11:45:35.888Z,1013.82
2016-03-16T11:46:35.890Z,1013.84
2016-03-16T11:47:35.924Z,1013.78
2016-03-16T11:48:35.927Z,1013.8
2016-03-16T11:49:35.946Z,1013.8
2016-03-16T11:50:35.964Z,1013.8
2016-03-16T11:51:35.967Z,1013.82
2016-03-16T11:52:35.985Z,1013.83
2016-03-16T11:53:36.003Z,1013.88
2016-03-16T11:54:36.021Z,1013.87
2016-03-16T11:55:36.023Z,1013.87
2016-03-16T11:56:36.043Z,1013.94
2016-03-16T11:57:36.061Z,1013.88
2016-03-16T11:58:36.079Z,1013.85
2016-03-16T11:59:36.081Z,1013.87
2016-03-16T12:00:36.100Z,1013.82
2016-03-16T12:01:36.119Z,1013.75
2016-03-16T12:02:36.136Z,1013.76
2016-03-16T12:03:36.155Z,1013.85
2016-03-16T12:04:36.158Z,1013.81
2016-03-16T12:05:36.176Z,1013.8
2016-03-16T12:06:36.194Z,1013.83
2016-03-16T12:07:36.197Z,1013.76
2016-03-16T12:08:36.216Z,1013.82
2016-03-16T12:09:36.233Z,1013.84